sensor_id;sensor_type;location;lat;lon;timestamp;P1;durP1;ratioP1;P2;durP2;ratioP2
57067;SDS011;43391;47.448;18.904;2023-06-22T00:00:52;15.50;;;8.68;;
57067;SDS011;43391;47.448;18.904;2023-06-22T00:03:18;23.25;;;9.52;;
57067;SDS011;43391;47.448;18.904;2023-06-22T00:05:46;21.25;;;9.32;;
57067;SDS011;43391;47.448;18.904;2023-06-22T00:08:12;15.13;;;9.63;;
57067;SDS011;43391;47.448;18.904;2023-06-22T00:10:38;19.13;;;9.55;;
57067;SDS011;43391;47.448;18.904;2023-06-22T00:13:04;14.52;;;9.77;;
57067;SDS011;43391;47.448;18.904;2023-06-22T00:15:30;14.50;;;9.48;;
57067;SDS011;43391;47.448;18.904;2023-06-22T00:17:56;24.95;;;11.00;;
57067;SDS011;43391;47.448;18.904;2023-06-22T00:20:22;18.98;;;10.35;;
57067;SDS011;43391;47.448;18.904;2023-06-22T00:22:48;17.30;;;9.50;;
57067;SDS011;43391;47.448;18.904;2023-06-22T00:25:13;18.73;;;10.07;;
57067;SDS011;43391;47.448;18.904;2023-06-22T00:27:39;22.00;;;10.50;;
57067;SDS011;43391;47.448;18.904;2023-06-22T00:30:04;23.45;;;9.90;;
57067;SDS011;43391;47.448;18.904;2023-06-22T00:32:30;18.92;;;10.85;;
57067;SDS011;43391;47.448;18.904;2023-06-22T00:34:55;17.33;;;9.63;;
57067;SDS011;43391;47.448;18.904;2023-06-22T00:37:20;13.20;;;10.15;;
57067;SDS011;43391;47.448;18.904;2023-06-22T00:39:50;19.33;;;10.00;;
57067;SDS011;43391;47.448;18.904;2023-06-22T00:42:16;18.75;;;10.45;;
57067;SDS011;43391;47.448;18.904;2023-06-22T00:44:42;18.73;;;10.48;;
57067;SDS011;43391;47.448;18.904;2023-06-22T00:47:08;16.65;;;10.02;;
57067;SDS011;43391;47.448;18.904;2023-06-22T00:49:34;22.05;;;10.52;;
57067;SDS011;43391;47.448;18.904;2023-06-22T00:52:00;19.17;;;10.75;;
57067;SDS011;43391;47.448;18.904;2023-06-22T00:54:25;22.00;;;10.65;;
57067;SDS011;43391;47.448;18.904;2023-06-22T00:56:53;19.30;;;9.90;;
57067;SDS011;43391;47.448;18.904;2023-06-22T00:59:21;19.70;;;10.33;;
57067;SDS011;43391;47.448;18.904;2023-06-22T01:01:46;21.33;;;10.25;;
57067;SDS011;43391;47.448;18.904;2023-06-22T01:04:12;20.98;;;11.07;;
57067;SDS011;43391;47.448;18.904;2023-06-22T01:06:46;16.05;;;10.10;;
57067;SDS011;43391;47.448;18.904;2023-06-22T01:09:21;16.38;;;10.75;;
57067;SDS011;43391;47.448;18.904;2023-06-22T01:11:53;18.25;;;9.77;;
57067;SDS011;43391;47.448;18.904;2023-06-22T01:14:31;22.33;;;11.55;;
57067;SDS011;43391;47.448;18.904;2023-06-22T01:17:05;17.70;;;10.50;;
57067;SDS011;43391;47.448;18.904;2023-06-22T01:22:14;13.50;;;10.27;;
57067;SDS011;43391;47.448;18.904;2023-06-22T01:30:10;19.52;;;11.35;;
57067;SDS011;43391;47.448;18.904;2023-06-22T01:32:39;15.63;;;10.27;;
57067;SDS011;43391;47.448;18.904;2023-06-22T01:35:06;18.02;;;9.93;;
57067;SDS011;43391;47.448;18.904;2023-06-22T01:37:33;17.70;;;9.93;;
57067;SDS011;43391;47.448;18.904;2023-06-22T01:40:00;11.80;;;9.15;;
57067;SDS011;43391;47.448;18.904;2023-06-22T01:42:26;16.33;;;10.48;;
57067;SDS011;43391;47.448;18.904;2023-06-22T01:44:53;20.15;;;11.00;;
57067;SDS011;43391;47.448;18.904;2023-06-22T01:47:19;19.20;;;10.55;;
57067;SDS011;43391;47.448;18.904;2023-06-22T01:49:46;16.23;;;10.10;;
57067;SDS011;43391;47.448;18.904;2023-06-22T01:52:13;20.70;;;10.10;;
57067;SDS011;43391;47.448;18.904;2023-06-22T01:54:39;19.85;;;11.52;;
57067;SDS011;43391;47.448;18.904;2023-06-22T01:57:05;18.15;;;10.48;;
57067;SDS011;43391;47.448;18.904;2023-06-22T02:02:23;17.00;;;10.20;;
57067;SDS011;43391;47.448;18.904;2023-06-22T02:04:56;24.13;;;10.20;;
57067;SDS011;43391;47.448;18.904;2023-06-22T02:07:26;16.58;;;9.80;;
57067;SDS011;43391;47.448;18.904;2023-06-22T02:09:57;16.65;;;9.75;;
57067;SDS011;43391;47.448;18.904;2023-06-22T02:12:24;18.67;;;10.43;;
57067;SDS011;43391;47.448;18.904;2023-06-22T02:14:52;16.73;;;8.70;;
57067;SDS011;43391;47.448;18.904;2023-06-22T02:17:18;19.52;;;9.52;;
57067;SDS011;43391;47.448;18.904;2023-06-22T02:19:44;15.18;;;8.13;;
57067;SDS011;43391;47.448;18.904;2023-06-22T02:22:09;18.27;;;9.05;;
57067;SDS011;43391;47.448;18.904;2023-06-22T02:24:35;15.40;;;8.15;;
57067;SDS011;43391;47.448;18.904;2023-06-22T02:27:01;12.07;;;7.75;;
57067;SDS011;43391;47.448;18.904;2023-06-22T02:29:27;14.38;;;7.78;;
57067;SDS011;43391;47.448;18.904;2023-06-22T02:31:53;17.58;;;8.40;;
57067;SDS011;43391;47.448;18.904;2023-06-22T02:34:19;13.18;;;8.35;;
57067;SDS011;43391;47.448;18.904;2023-06-22T02:36:46;13.55;;;7.32;;
57067;SDS011;43391;47.448;18.904;2023-06-22T02:39:22;15.55;;;8.35;;
57067;SDS011;43391;47.448;18.904;2023-06-22T02:41:52;21.23;;;8.27;;
57067;SDS011;43391;47.448;18.904;2023-06-22T02:44:18;17.25;;;7.88;;
57067;SDS011;43391;47.448;18.904;2023-06-22T02:46:44;14.68;;;8.25;;
57067;SDS011;43391;47.448;18.904;2023-06-22T02:49:10;12.57;;;7.35;;
57067;SDS011;43391;47.448;18.904;2023-06-22T02:51:37;13.70;;;8.68;;
57067;SDS011;43391;47.448;18.904;2023-06-22T02:54:05;14.05;;;7.95;;
57067;SDS011;43391;47.448;18.904;2023-06-22T02:56:30;14.02;;;8.13;;
57067;SDS011;43391;47.448;18.904;2023-06-22T02:58:56;14.32;;;7.25;;
57067;SDS011;43391;47.448;18.904;2023-06-22T03:01:25;17.77;;;7.85;;
57067;SDS011;43391;47.448;18.904;2023-06-22T03:03:52;16.73;;;7.60;;
57067;SDS011;43391;47.448;18.904;2023-06-22T03:06:18;15.82;;;7.45;;
57067;SDS011;43391;47.448;18.904;2023-06-22T03:08:51;16.20;;;8.65;;
57067;SDS011;43391;47.448;18.904;2023-06-22T03:11:17;18.27;;;8.30;;
57067;SDS011;43391;47.448;18.904;2023-06-22T03:13:42;14.23;;;7.20;;
57067;SDS011;43391;47.448;18.904;2023-06-22T03:16:08;17.02;;;8.43;;
57067;SDS011;43391;47.448;18.904;2023-06-22T03:18:33;19.30;;;8.75;;
57067;SDS011;43391;47.448;18.904;2023-06-22T03:20:59;17.08;;;9.23;;
57067;SDS011;43391;47.448;18.904;2023-06-22T03:23:27;18.40;;;8.05;;
57067;SDS011;43391;47.448;18.904;2023-06-22T03:25:52;15.13;;;9.45;;
57067;SDS011;43391;47.448;18.904;2023-06-22T03:28:20;21.27;;;9.13;;
57067;SDS011;43391;47.448;18.904;2023-06-22T03:30:46;18.52;;;9.00;;
57067;SDS011;43391;47.448;18.904;2023-06-22T03:33:11;15.15;;;9.07;;
57067;SDS011;43391;47.448;18.904;2023-06-22T03:35:37;19.15;;;9.38;;
57067;SDS011;43391;47.448;18.904;2023-06-22T03:38:02;16.88;;;8.93;;
57067;SDS011;43391;47.448;18.904;2023-06-22T03:40:27;14.30;;;8.48;;
57067;SDS011;43391;47.448;18.904;2023-06-22T03:42:53;16.42;;;8.75;;
57067;SDS011;43391;47.448;18.904;2023-06-22T03:45:18;13.77;;;8.00;;
57067;SDS011;43391;47.448;18.904;2023-06-22T03:47:43;17.23;;;8.02;;
57067;SDS011;43391;47.448;18.904;2023-06-22T03:50:09;15.02;;;8.07;;
57067;SDS011;43391;47.448;18.904;2023-06-22T03:52:34;17.40;;;8.50;;
57067;SDS011;43391;47.448;18.904;2023-06-22T03:55:00;14.90;;;7.47;;
57067;SDS011;43391;47.448;18.904;2023-06-22T03:57:25;18.20;;;8.70;;
57067;SDS011;43391;47.448;18.904;2023-06-22T03:59:51;21.30;;;8.32;;
57067;SDS011;43391;47.448;18.904;2023-06-22T04:02:16;13.70;;;7.65;;
57067;SDS011;43391;47.448;18.904;2023-06-22T04:04:41;13.20;;;7.38;;
57067;SDS011;43391;47.448;18.904;2023-06-22T04:07:07;15.88;;;7.97;;
57067;SDS011;43391;47.448;18.904;2023-06-22T04:09:32;13.85;;;7.68;;
57067;SDS011;43391;47.448;18.904;2023-06-22T04:11:58;14.68;;;7.00;;
57067;SDS011;43391;47.448;18.904;2023-06-22T04:14:23;15.45;;;7.68;;
57067;SDS011;43391;47.448;18.904;2023-06-22T04:16:48;16.45;;;7.93;;
57067;SDS011;43391;47.448;18.904;2023-06-22T04:19:14;15.57;;;7.10;;
57067;SDS011;43391;47.448;18.904;2023-06-22T04:21:42;15.50;;;7.78;;
57067;SDS011;43391;47.448;18.904;2023-06-22T04:24:09;14.18;;;7.28;;
57067;SDS011;43391;47.448;18.904;2023-06-22T04:26:35;12.98;;;6.90;;
57067;SDS011;43391;47.448;18.904;2023-06-22T04:29:02;20.58;;;7.93;;
57067;SDS011;43391;47.448;18.904;2023-06-22T04:31:30;13.65;;;7.70;;
57067;SDS011;43391;47.448;18.904;2023-06-22T04:34:05;12.55;;;7.07;;
57067;SDS011;43391;47.448;18.904;2023-06-22T04:36:38;11.65;;;7.53;;
57067;SDS011;43391;47.448;18.904;2023-06-22T04:39:06;19.38;;;7.63;;
57067;SDS011;43391;47.448;18.904;2023-06-22T04:41:34;20.30;;;7.72;;
57067;SDS011;43391;47.448;18.904;2023-06-22T04:44:07;16.90;;;8.02;;
57067;SDS011;43391;47.448;18.904;2023-06-22T04:46:33;17.98;;;8.07;;
57067;SDS011;43391;47.448;18.904;2023-06-22T04:49:02;15.70;;;7.30;;
57067;SDS011;43391;47.448;18.904;2023-06-22T04:51:31;14.02;;;7.47;;
57067;SDS011;43391;47.448;18.904;2023-06-22T04:53:56;17.10;;;7.88;;
57067;SDS011;43391;47.448;18.904;2023-06-22T04:56:25;12.77;;;7.45;;
57067;SDS011;43391;47.448;18.904;2023-06-22T04:58:52;16.00;;;7.95;;
57067;SDS011;43391;47.448;18.904;2023-06-22T05:01:21;18.65;;;8.35;;
57067;SDS011;43391;47.448;18.904;2023-06-22T05:03:47;14.13;;;9.00;;
57067;SDS011;43391;47.448;18.904;2023-06-22T05:06:13;16.20;;;7.93;;
57067;SDS011;43391;47.448;18.904;2023-06-22T05:08:39;13.98;;;7.20;;
57067;SDS011;43391;47.448;18.904;2023-06-22T05:11:05;14.07;;;7.50;;
57067;SDS011;43391;47.448;18.904;2023-06-22T05:13:30;16.75;;;7.78;;
57067;SDS011;43391;47.448;18.904;2023-06-22T05:15:56;12.85;;;7.20;;
57067;SDS011;43391;47.448;18.904;2023-06-22T05:18:26;17.48;;;8.13;;
57067;SDS011;43391;47.448;18.904;2023-06-22T05:20:54;12.27;;;7.10;;
57067;SDS011;43391;47.448;18.904;2023-06-22T05:23:19;15.35;;;7.45;;
57067;SDS011;43391;47.448;18.904;2023-06-22T05:25:45;16.95;;;8.63;;
57067;SDS011;43391;47.448;18.904;2023-06-22T05:28:10;18.73;;;8.02;;
57067;SDS011;43391;47.448;18.904;2023-06-22T05:30:36;15.57;;;8.25;;
57067;SDS011;43391;47.448;18.904;2023-06-22T05:33:02;16.27;;;7.63;;
57067;SDS011;43391;47.448;18.904;2023-06-22T05:35:27;16.17;;;8.20;;
57067;SDS011;43391;47.448;18.904;2023-06-22T05:37:53;15.55;;;8.30;;
57067;SDS011;43391;47.448;18.904;2023-06-22T05:40:18;16.13;;;8.30;;
57067;SDS011;43391;47.448;18.904;2023-06-22T05:42:44;15.95;;;8.50;;
57067;SDS011;43391;47.448;18.904;2023-06-22T05:45:09;24.10;;;8.00;;
57067;SDS011;43391;47.448;18.904;2023-06-22T05:47:34;18.58;;;8.52;;
57067;SDS011;43391;47.448;18.904;2023-06-22T05:50:00;19.92;;;7.38;;
57067;SDS011;43391;47.448;18.904;2023-06-22T05:52:25;14.82;;;8.05;;
57067;SDS011;43391;47.448;18.904;2023-06-22T05:54:51;14.15;;;7.70;;
57067;SDS011;43391;47.448;18.904;2023-06-22T05:57:16;17.02;;;7.78;;
57067;SDS011;43391;47.448;18.904;2023-06-22T05:59:41;15.82;;;7.30;;
57067;SDS011;43391;47.448;18.904;2023-06-22T06:02:07;15.85;;;7.47;;
57067;SDS011;43391;47.448;18.904;2023-06-22T06:04:32;14.25;;;8.05;;
57067;SDS011;43391;47.448;18.904;2023-06-22T06:06:57;18.70;;;7.82;;
57067;SDS011;43391;47.448;18.904;2023-06-22T06:09:23;15.90;;;7.88;;
57067;SDS011;43391;47.448;18.904;2023-06-22T06:11:48;19.23;;;7.82;;
57067;SDS011;43391;47.448;18.904;2023-06-22T06:14:13;13.50;;;7.60;;
57067;SDS011;43391;47.448;18.904;2023-06-22T06:16:39;19.35;;;8.00;;
57067;SDS011;43391;47.448;18.904;2023-06-22T06:19:04;18.08;;;7.55;;
57067;SDS011;43391;47.448;18.904;2023-06-22T06:21:29;14.27;;;6.93;;
57067;SDS011;43391;47.448;18.904;2023-06-22T06:23:55;12.27;;;7.18;;
57067;SDS011;43391;47.448;18.904;2023-06-22T06:26:20;14.30;;;7.22;;
57067;SDS011;43391;47.448;18.904;2023-06-22T06:28:53;15.18;;;6.65;;
57067;SDS011;43391;47.448;18.904;2023-06-22T06:31:19;18.85;;;6.75;;
57067;SDS011;43391;47.448;18.904;2023-06-22T06:33:45;16.60;;;6.88;;
57067;SDS011;43391;47.448;18.904;2023-06-22T06:36:11;17.67;;;6.72;;
57067;SDS011;43391;47.448;18.904;2023-06-22T06:38:36;18.25;;;7.00;;
57067;SDS011;43391;47.448;18.904;2023-06-22T06:41:01;13.82;;;5.72;;
57067;SDS011;43391;47.448;18.904;2023-06-22T06:43:27;14.50;;;6.25;;
57067;SDS011;43391;47.448;18.904;2023-06-22T06:45:52;11.65;;;6.25;;
57067;SDS011;43391;47.448;18.904;2023-06-22T06:48:18;14.55;;;5.45;;
57067;SDS011;43391;47.448;18.904;2023-06-22T06:50:43;14.45;;;6.03;;
57067;SDS011;43391;47.448;18.904;2023-06-22T06:53:09;11.70;;;5.38;;
57067;SDS011;43391;47.448;18.904;2023-06-22T06:55:34;12.25;;;5.28;;
57067;SDS011;43391;47.448;18.904;2023-06-22T06:58:00;16.60;;;5.57;;
57067;SDS011;43391;47.448;18.904;2023-06-22T07:00:26;17.10;;;6.40;;
57067;SDS011;43391;47.448;18.904;2023-06-22T07:02:52;18.35;;;6.18;;
57067;SDS011;43391;47.448;18.904;2023-06-22T07:05:18;12.23;;;5.68;;
57067;SDS011;43391;47.448;18.904;2023-06-22T07:07:43;16.85;;;5.88;;
57067;SDS011;43391;47.448;18.904;2023-06-22T07:10:08;13.55;;;5.25;;
57067;SDS011;43391;47.448;18.904;2023-06-22T07:12:35;18.50;;;5.53;;
57067;SDS011;43391;47.448;18.904;2023-06-22T07:15:02;14.68;;;5.50;;
57067;SDS011;43391;47.448;18.904;2023-06-22T07:17:32;13.68;;;6.03;;
57067;SDS011;43391;47.448;18.904;2023-06-22T07:19:58;14.98;;;6.10;;
57067;SDS011;43391;47.448;18.904;2023-06-22T07:22:23;10.25;;;5.25;;
57067;SDS011;43391;47.448;18.904;2023-06-22T07:24:49;16.08;;;6.18;;
57067;SDS011;43391;47.448;18.904;2023-06-22T07:27:14;13.50;;;6.43;;
57067;SDS011;43391;47.448;18.904;2023-06-22T07:29:43;15.32;;;6.57;;
57067;SDS011;43391;47.448;18.904;2023-06-22T07:32:08;14.68;;;5.75;;
57067;SDS011;43391;47.448;18.904;2023-06-22T07:34:34;10.38;;;6.10;;
57067;SDS011;43391;47.448;18.904;2023-06-22T07:36:59;12.38;;;6.43;;
57067;SDS011;43391;47.448;18.904;2023-06-22T07:39:24;10.73;;;5.90;;
57067;SDS011;43391;47.448;18.904;2023-06-22T07:41:51;11.68;;;6.90;;
57067;SDS011;43391;47.448;18.904;2023-06-22T07:44:17;14.18;;;7.20;;
57067;SDS011;43391;47.448;18.904;2023-06-22T07:46:43;11.85;;;6.68;;
57067;SDS011;43391;47.448;18.904;2023-06-22T07:49:08;20.13;;;7.30;;
57067;SDS011;43391;47.448;18.904;2023-06-22T07:51:34;16.30;;;7.70;;
57067;SDS011;43391;47.448;18.904;2023-06-22T07:53:59;13.75;;;7.13;;
57067;SDS011;43391;47.448;18.904;2023-06-22T07:56:25;14.55;;;6.78;;
57067;SDS011;43391;47.448;18.904;2023-06-22T07:58:50;12.27;;;7.22;;
57067;SDS011;43391;47.448;18.904;2023-06-22T08:01:15;21.90;;;7.75;;
57067;SDS011;43391;47.448;18.904;2023-06-22T08:03:42;11.98;;;7.57;;
57067;SDS011;43391;47.448;18.904;2023-06-22T08:06:07;15.25;;;7.60;;
57067;SDS011;43391;47.448;18.904;2023-06-22T08:08:34;20.30;;;7.40;;
57067;SDS011;43391;47.448;18.904;2023-06-22T08:11:00;19.20;;;7.45;;
57067;SDS011;43391;47.448;18.904;2023-06-22T08:13:26;8.23;;;6.53;;
57067;SDS011;43391;47.448;18.904;2023-06-22T08:15:51;13.57;;;7.13;;
57067;SDS011;43391;47.448;18.904;2023-06-22T08:18:17;14.88;;;8.50;;
57067;SDS011;43391;47.448;18.904;2023-06-22T08:20:42;11.57;;;7.78;;
57067;SDS011;43391;47.448;18.904;2023-06-22T08:23:07;13.95;;;8.82;;
57067;SDS011;43391;47.448;18.904;2023-06-22T08:25:33;18.15;;;10.10;;
57067;SDS011;43391;47.448;18.904;2023-06-22T08:27:59;17.65;;;10.52;;
57067;SDS011;43391;47.448;18.904;2023-06-22T08:30:25;13.70;;;10.05;;
57067;SDS011;43391;47.448;18.904;2023-06-22T08:32:50;17.63;;;11.15;;
57067;SDS011;43391;47.448;18.904;2023-06-22T08:35:16;15.43;;;11.20;;
57067;SDS011;43391;47.448;18.904;2023-06-22T08:37:41;13.95;;;11.07;;
57067;SDS011;43391;47.448;18.904;2023-06-22T08:40:08;18.08;;;10.95;;
57067;SDS011;43391;47.448;18.904;2023-06-22T08:42:35;12.45;;;10.25;;
57067;SDS011;43391;47.448;18.904;2023-06-22T08:45:01;14.85;;;10.57;;
57067;SDS011;43391;47.448;18.904;2023-06-22T08:47:29;17.00;;;10.70;;
57067;SDS011;43391;47.448;18.904;2023-06-22T08:49:54;13.85;;;11.48;;
57067;SDS011;43391;47.448;18.904;2023-06-22T08:52:20;19.38;;;11.45;;
57067;SDS011;43391;47.448;18.904;2023-06-22T08:54:46;18.20;;;11.43;;
57067;SDS011;43391;47.448;18.904;2023-06-22T08:57:11;14.38;;;11.15;;
57067;SDS011;43391;47.448;18.904;2023-06-22T08:59:37;17.77;;;11.90;;
57067;SDS011;43391;47.448;18.904;2023-06-22T09:02:02;20.58;;;12.73;;
57067;SDS011;43391;47.448;18.904;2023-06-22T09:04:28;15.23;;;11.73;;
57067;SDS011;43391;47.448;18.904;2023-06-22T09:06:53;18.23;;;11.90;;
57067;SDS011;43391;47.448;18.904;2023-06-22T09:09:18;16.25;;;11.50;;
57067;SDS011;43391;47.448;18.904;2023-06-22T09:11:44;15.55;;;13.10;;
57067;SDS011;43391;47.448;18.904;2023-06-22T09:14:10;15.88;;;12.13;;
57067;SDS011;43391;47.448;18.904;2023-06-22T09:16:36;14.43;;;11.80;;
57067;SDS011;43391;47.448;18.904;2023-06-22T09:19:01;19.40;;;11.90;;
57067;SDS011;43391;47.448;18.904;2023-06-22T09:21:26;14.18;;;11.18;;
57067;SDS011;43391;47.448;18.904;2023-06-22T09:23:52;17.27;;;11.85;;
57067;SDS011;43391;47.448;18.904;2023-06-22T09:26:18;19.30;;;11.73;;
57067;SDS011;43391;47.448;18.904;2023-06-22T09:28:43;18.88;;;13.07;;
57067;SDS011;43391;47.448;18.904;2023-06-22T09:31:09;18.60;;;11.35;;
57067;SDS011;43391;47.448;18.904;2023-06-22T09:33:35;19.02;;;12.55;;
57067;SDS011;43391;47.448;18.904;2023-06-22T09:36:01;17.17;;;12.43;;
57067;SDS011;43391;47.448;18.904;2023-06-22T09:38:26;20.63;;;13.90;;
57067;SDS011;43391;47.448;18.904;2023-06-22T09:40:52;13.65;;;12.18;;
57067;SDS011;43391;47.448;18.904;2023-06-22T09:43:17;16.00;;;11.35;;
57067;SDS011;43391;47.448;18.904;2023-06-22T09:45:42;17.95;;;12.25;;
57067;SDS011;43391;47.448;18.904;2023-06-22T09:48:08;15.38;;;12.13;;
57067;SDS011;43391;47.448;18.904;2023-06-22T09:50:34;20.75;;;12.10;;
57067;SDS011;43391;47.448;18.904;2023-06-22T09:53:00;16.52;;;11.68;;
57067;SDS011;43391;47.448;18.904;2023-06-22T09:55:25;19.30;;;13.15;;
57067;SDS011;43391;47.448;18.904;2023-06-22T09:57:51;15.20;;;12.35;;
57067;SDS011;43391;47.448;18.904;2023-06-22T10:00:16;14.48;;;11.57;;
57067;SDS011;43391;47.448;18.904;2023-06-22T10:02:42;16.90;;;11.73;;
57067;SDS011;43391;47.448;18.904;2023-06-22T10:05:08;17.05;;;12.00;;
57067;SDS011;43391;47.448;18.904;2023-06-22T10:07:33;17.33;;;12.45;;
57067;SDS011;43391;47.448;18.904;2023-06-22T10:09:59;15.07;;;11.90;;
57067;SDS011;43391;47.448;18.904;2023-06-22T10:12:25;14.45;;;11.75;;
57067;SDS011;43391;47.448;18.904;2023-06-22T10:14:52;16.50;;;11.80;;
57067;SDS011;43391;47.448;18.904;2023-06-22T10:17:17;17.77;;;12.05;;
57067;SDS011;43391;47.448;18.904;2023-06-22T10:19:43;15.13;;;13.15;;
57067;SDS011;43391;47.448;18.904;2023-06-22T10:22:08;18.08;;;12.82;;
57067;SDS011;43391;47.448;18.904;2023-06-22T10:24:33;14.25;;;11.75;;
57067;SDS011;43391;47.448;18.904;2023-06-22T10:26:59;16.60;;;12.52;;
57067;SDS011;43391;47.448;18.904;2023-06-22T10:29:24;13.00;;;11.48;;
57067;SDS011;43391;47.448;18.904;2023-06-22T10:31:50;15.27;;;11.93;;
57067;SDS011;43391;47.448;18.904;2023-06-22T10:34:15;19.27;;;12.13;;
57067;SDS011;43391;47.448;18.904;2023-06-22T10:36:40;16.02;;;13.02;;
57067;SDS011;43391;47.448;18.904;2023-06-22T10:39:06;14.95;;;12.15;;
57067;SDS011;43391;47.448;18.904;2023-06-22T10:41:31;18.70;;;12.93;;
57067;SDS011;43391;47.448;18.904;2023-06-22T10:43:56;17.90;;;12.27;;
57067;SDS011;43391;47.448;18.904;2023-06-22T10:46:24;20.05;;;13.27;;
57067;SDS011;43391;47.448;18.904;2023-06-22T10:48:50;18.50;;;12.85;;
57067;SDS011;43391;47.448;18.904;2023-06-22T10:51:19;15.75;;;12.38;;
57067;SDS011;43391;47.448;18.904;2023-06-22T10:53:44;14.98;;;12.38;;
57067;SDS011;43391;47.448;18.904;2023-06-22T10:56:09;17.40;;;11.75;;
57067;SDS011;43391;47.448;18.904;2023-06-22T10:58:36;18.95;;;13.10;;
57067;SDS011;43391;47.448;18.904;2023-06-22T11:01:01;16.90;;;12.80;;
57067;SDS011;43391;47.448;18.904;2023-06-22T11:03:28;15.30;;;11.93;;
57067;SDS011;43391;47.448;18.904;2023-06-22T11:05:53;14.55;;;12.82;;
57067;SDS011;43391;47.448;18.904;2023-06-22T11:08:19;17.63;;;12.48;;
57067;SDS011;43391;47.448;18.904;2023-06-22T11:10:44;18.65;;;12.70;;
57067;SDS011;43391;47.448;18.904;2023-06-22T11:13:09;17.77;;;12.48;;
57067;SDS011;43391;47.448;18.904;2023-06-22T11:15:35;18.40;;;13.52;;
57067;SDS011;43391;47.448;18.904;2023-06-22T11:18:01;17.75;;;12.73;;
57067;SDS011;43391;47.448;18.904;2023-06-22T11:20:26;17.30;;;13.43;;
57067;SDS011;43391;47.448;18.904;2023-06-22T11:22:52;18.08;;;13.25;;
57067;SDS011;43391;47.448;18.904;2023-06-22T11:25:17;15.77;;;13.02;;
57067;SDS011;43391;47.448;18.904;2023-06-22T11:27:43;14.75;;;13.10;;
57067;SDS011;43391;47.448;18.904;2023-06-22T11:30:08;16.02;;;12.07;;
57067;SDS011;43391;47.448;18.904;2023-06-22T11:32:34;15.52;;;12.05;;
57067;SDS011;43391;47.448;18.904;2023-06-22T11:34:59;14.75;;;13.23;;
57067;SDS011;43391;47.448;18.904;2023-06-22T11:37:25;19.52;;;12.13;;
57067;SDS011;43391;47.448;18.904;2023-06-22T11:39:50;14.93;;;12.45;;
57067;SDS011;43391;47.448;18.904;2023-06-22T11:42:16;19.38;;;12.02;;
57067;SDS011;43391;47.448;18.904;2023-06-22T11:44:42;14.82;;;11.50;;
57067;SDS011;43391;47.448;18.904;2023-06-22T11:47:08;14.02;;;12.13;;
57067;SDS011;43391;47.448;18.904;2023-06-22T11:49:33;16.77;;;11.90;;
57067;SDS011;43391;47.448;18.904;2023-06-22T11:51:59;15.77;;;12.88;;
57067;SDS011;43391;47.448;18.904;2023-06-22T11:54:24;14.93;;;12.70;;
57067;SDS011;43391;47.448;18.904;2023-06-22T11:56:49;16.52;;;11.40;;
57067;SDS011;43391;47.448;18.904;2023-06-22T11:59:15;15.10;;;11.27;;
57067;SDS011;43391;47.448;18.904;2023-06-22T12:01:40;20.33;;;11.07;;
57067;SDS011;43391;47.448;18.904;2023-06-22T12:04:05;17.52;;;11.35;;
57067;SDS011;43391;47.448;18.904;2023-06-22T12:06:35;17.17;;;11.00;;
57067;SDS011;43391;47.448;18.904;2023-06-22T12:09:03;19.67;;;11.27;;
57067;SDS011;43391;47.448;18.904;2023-06-22T12:11:29;14.20;;;10.90;;
57067;SDS011;43391;47.448;18.904;2023-06-22T12:13:54;21.33;;;12.35;;
57067;SDS011;43391;47.448;18.904;2023-06-22T12:16:20;13.15;;;9.88;;
57067;SDS011;43391;47.448;18.904;2023-06-22T12:18:46;12.75;;;9.93;;
57067;SDS011;43391;47.448;18.904;2023-06-22T12:21:13;18.40;;;10.70;;
57067;SDS011;43391;47.448;18.904;2023-06-22T12:23:38;17.25;;;10.82;;
57067;SDS011;43391;47.448;18.904;2023-06-22T12:26:04;12.07;;;10.13;;
57067;SDS011;43391;47.448;18.904;2023-06-22T12:28:29;13.43;;;10.80;;
57067;SDS011;43391;47.448;18.904;2023-06-22T12:30:54;14.93;;;9.98;;
57067;SDS011;43391;47.448;18.904;2023-06-22T12:33:19;14.57;;;10.20;;
57067;SDS011;43391;47.448;18.904;2023-06-22T12:35:45;15.73;;;10.52;;
57067;SDS011;43391;47.448;18.904;2023-06-22T12:38:11;16.35;;;9.88;;
57067;SDS011;43391;47.448;18.904;2023-06-22T12:40:36;14.35;;;10.15;;
57067;SDS011;43391;47.448;18.904;2023-06-22T12:43:01;14.38;;;10.50;;
57067;SDS011;43391;47.448;18.904;2023-06-22T12:45:27;20.65;;;11.48;;
57067;SDS011;43391;47.448;18.904;2023-06-22T12:47:54;18.38;;;10.48;;
57067;SDS011;43391;47.448;18.904;2023-06-22T12:50:19;16.50;;;10.45;;
57067;SDS011;43391;47.448;18.904;2023-06-22T12:52:45;15.95;;;10.43;;
57067;SDS011;43391;47.448;18.904;2023-06-22T12:55:10;17.70;;;10.25;;
57067;SDS011;43391;47.448;18.904;2023-06-22T12:57:36;15.75;;;10.77;;
57067;SDS011;43391;47.448;18.904;2023-06-22T13:00:01;22.40;;;11.55;;
57067;SDS011;43391;47.448;18.904;2023-06-22T13:02:26;17.48;;;10.88;;
57067;SDS011;43391;47.448;18.904;2023-06-22T13:04:52;16.30;;;10.52;;
57067;SDS011;43391;47.448;18.904;2023-06-22T13:07:18;15.52;;;10.13;;
57067;SDS011;43391;47.448;18.904;2023-06-22T13:09:43;18.17;;;10.05;;
57067;SDS011;43391;47.448;18.904;2023-06-22T13:12:11;13.65;;;9.65;;
57067;SDS011;43391;47.448;18.904;2023-06-22T13:14:36;17.38;;;10.32;;
57067;SDS011;43391;47.448;18.904;2023-06-22T13:17:03;15.55;;;10.18;;
57067;SDS011;43391;47.448;18.904;2023-06-22T13:19:28;15.52;;;9.93;;
57067;SDS011;43391;47.448;18.904;2023-06-22T13:21:57;16.92;;;10.65;;
57067;SDS011;43391;47.448;18.904;2023-06-22T13:24:22;15.70;;;9.77;;
57067;SDS011;43391;47.448;18.904;2023-06-22T13:26:48;16.90;;;9.82;;
57067;SDS011;43391;47.448;18.904;2023-06-22T13:29:13;16.08;;;10.55;;
57067;SDS011;43391;47.448;18.904;2023-06-22T13:31:38;16.75;;;9.90;;
57067;SDS011;43391;47.448;18.904;2023-06-22T13:34:03;19.70;;;9.80;;
57067;SDS011;43391;47.448;18.904;2023-06-22T13:36:29;17.75;;;10.85;;
57067;SDS011;43391;47.448;18.904;2023-06-22T13:38:55;16.98;;;9.45;;
57067;SDS011;43391;47.448;18.904;2023-06-22T13:41:21;15.73;;;10.00;;
57067;SDS011;43391;47.448;18.904;2023-06-22T13:43:47;14.68;;;10.10;;
57067;SDS011;43391;47.448;18.904;2023-06-22T13:46:12;18.63;;;9.70;;
57067;SDS011;43391;47.448;18.904;2023-06-22T13:48:38;12.60;;;9.77;;
57067;SDS011;43391;47.448;18.904;2023-06-22T13:51:03;15.52;;;9.18;;
57067;SDS011;43391;47.448;18.904;2023-06-22T13:53:29;16.60;;;9.93;;
57067;SDS011;43391;47.448;18.904;2023-06-22T13:55:54;17.45;;;10.27;;
57067;SDS011;43391;47.448;18.904;2023-06-22T13:58:20;11.93;;;9.00;;
57067;SDS011;43391;47.448;18.904;2023-06-22T14:00:46;19.58;;;10.18;;
57067;SDS011;43391;47.448;18.904;2023-06-22T14:03:11;15.55;;;10.27;;
57067;SDS011;43391;47.448;18.904;2023-06-22T14:05:37;15.85;;;9.43;;
57067;SDS011;43391;47.448;18.904;2023-06-22T14:08:04;17.13;;;9.65;;
57067;SDS011;43391;47.448;18.904;2023-06-22T14:10:29;14.75;;;9.57;;
57067;SDS011;43391;47.448;18.904;2023-06-22T14:12:55;16.35;;;9.63;;
57067;SDS011;43391;47.448;18.904;2023-06-22T14:15:20;14.77;;;9.43;;
57067;SDS011;43391;47.448;18.904;2023-06-22T14:17:45;12.73;;;9.00;;
57067;SDS011;43391;47.448;18.904;2023-06-22T14:20:11;16.25;;;9.95;;